sensor_id;sensor_type;location;lat;lon;timestamp;temperature;humidity
75190;HTU21D;69198;44.694;37.790;2023-04-16T00:00:12;10.25;76.25
75190;HTU21D;69198;44.694;37.790;2023-04-16T00:01:13;10.24;76.44
75190;HTU21D;69198;44.694;37.790;2023-04-16T00:02:15;10.22;76.71
75190;HTU21D;69198;44.694;37.790;2023-04-16T00:03:16;10.21;76.80
75190;HTU21D;69198;44.694;37.790;2023-04-16T00:04:17;10.20;76.76
75190;HTU21D;69198;44.694;37.790;2023-04-16T00:05:18;10.15;76.79
75190;HTU21D;69198;44.694;37.790;2023-04-16T00:06:19;10.16;76.76
75190;HTU21D;69198;44.694;37.790;2023-04-16T00:07:20;10.16;76.67
75190;HTU21D;69198;44.694;37.790;2023-04-16T00:08:22;10.18;76.50
75190;HTU21D;69198;44.694;37.790;2023-04-16T00:09:26;10.19;76.38
75190;HTU21D;69198;44.694;37.790;2023-04-16T00:10:27;10.21;76.28
75190;HTU21D;69198;44.694;37.790;2023-04-16T00:11:28;10.27;76.04
75190;HTU21D;69198;44.694;37.790;2023-04-16T00:12:29;10.26;76.08
75190;HTU21D;69198;44.694;37.790;2023-04-16T00:13:30;10.26;76.09
75190;HTU21D;69198;44.694;37.790;2023-04-16T00:14:31;10.23;76.19
75190;HTU21D;69198;44.694;37.790;2023-04-16T00:15:32;10.23;76.26
75190;HTU21D;69198;44.694;37.790;2023-04-16T00:16:33;10.22;76.60
75190;HTU21D;69198;44.694;37.790;2023-04-16T00:17:34;10.21;76.37
75190;HTU21D;69198;44.694;37.790;2023-04-16T00:18:35;10.22;75.99
75190;HTU21D;69198;44.694;37.790;2023-04-16T00:19:37;10.26;75.97
75190;HTU21D;69198;44.694;37.790;2023-04-16T00:20:38;10.25;76.18
75190;HTU21D;69198;44.694;37.790;2023-04-16T00:21:39;10.25;76.27
75190;HTU21D;69198;44.694;37.790;2023-04-16T00:22:40;10.23;75.95
75190;HTU21D;69198;44.694;37.790;2023-04-16T00:23:41;10.23;75.89
75190;HTU21D;69198;44.694;37.790;2023-04-16T00:24:42;10.22;75.89
75190;HTU21D;69198;44.694;37.790;2023-04-16T00:25:43;10.20;76.02
75190;HTU21D;69198;44.694;37.790;2023-04-16T00:26:44;10.20;75.87
75190;HTU21D;69198;44.694;37.790;2023-04-16T00:27:46;10.18;75.86
75190;HTU21D;69198;44.694;37.790;2023-04-16T00:28:47;10.16;75.84
75190;HTU21D;69198;44.694;37.790;2023-04-16T00:29:48;10.15;75.70
75190;HTU21D;69198;44.694;37.790;2023-04-16T00:30:49;10.14;75.61
75190;HTU21D;69198;44.694;37.790;2023-04-16T00:31:50;10.11;75.72
75190;HTU21D;69198;44.694;37.790;2023-04-16T00:32:51;10.07;75.83
75190;HTU21D;69198;44.694;37.790;2023-04-16T00:33:52;10.01;76.02
75190;HTU21D;69198;44.694;37.790;2023-04-16T00:34:54;10.03;76.12
75190;HTU21D;69198;44.694;37.790;2023-04-16T00:35:55;10.04;76.19
75190;HTU21D;69198;44.694;37.790;2023-04-16T00:36:56;10.04;76.13
75190;HTU21D;69198;44.694;37.790;2023-04-16T00:37:57;9.99;76.50
75190;HTU21D;69198;44.694;37.790;2023-04-16T00:38:58;9.98;76.78
75190;HTU21D;69198;44.694;37.790;2023-04-16T00:40:00;9.96;76.97
75190;HTU21D;69198;44.694;37.790;2023-04-16T00:41:01;9.96;76.66
75190;HTU21D;69198;44.694;37.790;2023-04-16T00:42:02;9.93;76.83
75190;HTU21D;69198;44.694;37.790;2023-04-16T00:43:03;9.90;76.90
75190;HTU21D;69198;44.694;37.790;2023-04-16T00:44:04;9.90;76.82
75190;HTU21D;69198;44.694;37.790;2023-04-16T00:45:05;9.86;76.75
75190;HTU21D;69198;44.694;37.790;2023-04-16T00:46:07;9.81;76.73
75190;HTU21D;69198;44.694;37.790;2023-04-16T00:47:08;9.76;76.86
75190;HTU21D;69198;44.694;37.790;2023-04-16T00:48:10;9.72;76.94
75190;HTU21D;69198;44.694;37.790;2023-04-16T00:49:11;9.71;76.93
75190;HTU21D;69198;44.694;37.790;2023-04-16T00:50:12;9.74;77.15
75190;HTU21D;69198;44.694;37.790;2023-04-16T00:51:14;9.78;77.21
75190;HTU21D;69198;44.694;37.790;2023-04-16T00:52:15;9.78;77.06
75190;HTU21D;69198;44.694;37.790;2023-04-16T00:53:16;9.75;76.93
75190;HTU21D;69198;44.694;37.790;2023-04-16T00:54:18;9.70;77.15
75190;HTU21D;69198;44.694;37.790;2023-04-16T00:55:19;9.70;77.15
75190;HTU21D;69198;44.694;37.790;2023-04-16T00:56:21;9.68;77.02
75190;HTU21D;69198;44.694;37.790;2023-04-16T00:57:23;9.68;77.24
75190;HTU21D;69198;44.694;37.790;2023-04-16T00:58:24;9.63;77.94
75190;HTU21D;69198;44.694;37.790;2023-04-16T00:59:26;9.63;77.60
75190;HTU21D;69198;44.694;37.790;2023-04-16T01:00:28;9.61;77.47
75190;HTU21D;69198;44.694;37.790;2023-04-16T01:01:29;9.59;77.63
75190;HTU21D;69198;44.694;37.790;2023-04-16T01:02:30;9.59;77.88
75190;HTU21D;69198;44.694;37.790;2023-04-16T01:03:43;9.64;78.22
75190;HTU21D;69198;44.694;37.790;2023-04-16T01:04:45;9.62;78.29
75190;HTU21D;69198;44.694;37.790;2023-04-16T01:05:46;9.64;78.09
75190;HTU21D;69198;44.694;37.790;2023-04-16T01:06:49;9.62;77.79
75190;HTU21D;69198;44.694;37.790;2023-04-16T01:07:51;9.63;77.61
75190;HTU21D;69198;44.694;37.790;2023-04-16T01:08:52;9.60;77.56
75190;HTU21D;69198;44.694;37.790;2023-04-16T01:09:53;9.60;77.88
75190;HTU21D;69198;44.694;37.790;2023-04-16T01:10:54;9.56;77.95
75190;HTU21D;69198;44.694;37.790;2023-04-16T01:11:55;9.55;78.10
75190;HTU21D;69198;44.694;37.790;2023-04-16T01:12:56;9.59;78.23
75190;HTU21D;69198;44.694;37.790;2023-04-16T01:13:57;9.65;78.03
75190;HTU21D;69198;44.694;37.790;2023-04-16T01:14:58;9.63;77.87
75190;HTU21D;69198;44.694;37.790;2023-04-16T01:16:00;9.59;77.86
75190;HTU21D;69198;44.694;37.790;2023-04-16T01:17:02;9.55;77.94
75190;HTU21D;69198;44.694;37.790;2023-04-16T01:18:15;9.55;78.24
75190;HTU21D;69198;44.694;37.790;2023-04-16T01:19:16;9.53;78.01
75190;HTU21D;69198;44.694;37.790;2023-04-16T01:20:18;9.52;78.11
75190;HTU21D;69198;44.694;37.790;2023-04-16T01:21:19;9.53;78.42
75190;HTU21D;69198;44.694;37.790;2023-04-16T01:22:20;9.61;78.44
75190;HTU21D;69198;44.694;37.790;2023-04-16T01:23:21;9.60;78.25
75190;HTU21D;69198;44.694;37.790;2023-04-16T01:24:22;9.52;78.27
75190;HTU21D;69198;44.694;37.790;2023-04-16T01:25:23;9.47;78.60
75190;HTU21D;69198;44.694;37.790;2023-04-16T01:26:24;9.42;78.79
75190;HTU21D;69198;44.694;37.790;2023-04-16T01:27:25;9.41;78.88
75190;HTU21D;69198;44.694;37.790;2023-04-16T01:28:27;9.39;79.03
75190;HTU21D;69198;44.694;37.790;2023-04-16T01:29:28;9.35;79.17
75190;HTU21D;69198;44.694;37.790;2023-04-16T01:30:31;9.36;79.48
75190;HTU21D;69198;44.694;37.790;2023-04-16T01:31:46;9.46;79.21
75190;HTU21D;69198;44.694;37.790;2023-04-16T01:32:56;9.51;78.57
75190;HTU21D;69198;44.694;37.790;2023-04-16T01:33:57;9.47;78.72
75190;HTU21D;69198;44.694;37.790;2023-04-16T01:34:58;9.44;78.63
75190;HTU21D;69198;44.694;37.790;2023-04-16T01:35:59;9.41;78.59
75190;HTU21D;69198;44.694;37.790;2023-04-16T01:37:02;9.40;78.59
75190;HTU21D;69198;44.694;37.790;2023-04-16T01:38:04;9.42;78.53
75190;HTU21D;69198;44.694;37.790;2023-04-16T01:39:06;9.38;78.66
75190;HTU21D;69198;44.694;37.790;2023-04-16T01:40:09;9.35;78.85
75190;HTU21D;69198;44.694;37.790;2023-04-16T01:41:10;9.35;79.01
75190;HTU21D;69198;44.694;37.790;2023-04-16T01:42:11;9.33;79.27
75190;HTU21D;69198;44.694;37.790;2023-04-16T01:43:12;9.31;79.50
75190;HTU21D;69198;44.694;37.790;2023-04-16T01:44:13;9.30;79.38
75190;HTU21D;69198;44.694;37.790;2023-04-16T01:45:16;9.29;79.31
75190;HTU21D;69198;44.694;37.790;2023-04-16T01:46:20;9.25;79.27
75190;HTU21D;69198;44.694;37.790;2023-04-16T01:47:23;9.24;79.25
75190;HTU21D;69198;44.694;37.790;2023-04-16T01:48:24;9.24;79.40
75190;HTU21D;69198;44.694;37.790;2023-04-16T01:49:25;9.21;79.56
75190;HTU21D;69198;44.694;37.790;2023-04-16T01:50:26;9.22;79.49
75190;HTU21D;69198;44.694;37.790;2023-04-16T01:51:28;9.22;79.53
75190;HTU21D;69198;44.694;37.790;2023-04-16T01:52:29;9.25;79.27
75190;HTU21D;69198;44.694;37.790;2023-04-16T01:53:30;9.26;79.30
75190;HTU21D;69198;44.694;37.790;2023-04-16T01:54:31;9.33;79.32
75190;HTU21D;69198;44.694;37.790;2023-04-16T01:55:33;9.35;78.96
75190;HTU21D;69198;44.694;37.790;2023-04-16T01:56:34;9.40;78.87
75190;HTU21D;69198;44.694;37.790;2023-04-16T01:57:35;9.42;78.89
75190;HTU21D;69198;44.694;37.790;2023-04-16T01:58:37;9.44;78.65
75190;HTU21D;69198;44.694;37.790;2023-04-16T01:59:39;9.45;78.41
75190;HTU21D;69198;44.694;37.790;2023-04-16T02:00:41;9.42;78.59
75190;HTU21D;69198;44.694;37.790;2023-04-16T02:01:42;9.46;78.21
75190;HTU21D;69198;44.694;37.790;2023-04-16T02:02:43;9.46;78.08
75190;HTU21D;69198;44.694;37.790;2023-04-16T02:03:44;9.44;78.24
75190;HTU21D;69198;44.694;37.790;2023-04-16T02:04:45;9.42;78.26
75190;HTU21D;69198;44.694;37.790;2023-04-16T02:05:46;9.39;78.51
75190;HTU21D;69198;44.694;37.790;2023-04-16T02:06:47;9.40;78.54
75190;HTU21D;69198;44.694;37.790;2023-04-16T02:07:48;9.44;78.47
75190;HTU21D;69198;44.694;37.790;2023-04-16T02:08:50;9.41;78.07
75190;HTU21D;69198;44.694;37.790;2023-04-16T02:09:52;9.39;78.37
75190;HTU21D;69198;44.694;37.790;2023-04-16T02:10:53;9.41;78.73
75190;HTU21D;69198;44.694;37.790;2023-04-16T02:11:54;9.41;78.82
75190;HTU21D;69198;44.694;37.790;2023-04-16T02:12:55;9.41;78.80
75190;HTU21D;69198;44.694;37.790;2023-04-16T02:13:56;9.46;78.53
75190;HTU21D;69198;44.694;37.790;2023-04-16T02:14:57;9.47;78.47
75190;HTU21D;69198;44.694;37.790;2023-04-16T02:16:00;9.48;78.27
75190;HTU21D;69198;44.694;37.790;2023-04-16T02:17:26;9.45;78.50
75190;HTU21D;69198;44.694;37.790;2023-04-16T02:18:39;9.42;78.40
75190;HTU21D;69198;44.694;37.790;2023-04-16T02:19:40;9.42;78.28
75190;HTU21D;69198;44.694;37.790;2023-04-16T02:20:45;9.42;78.54
75190;HTU21D;69198;44.694;37.790;2023-04-16T02:21:47;9.45;78.63
75190;HTU21D;69198;44.694;37.790;2023-04-16T02:22:48;9.44;78.37
75190;HTU21D;69198;44.694;37.790;2023-04-16T02:23:52;9.44;78.27
75190;HTU21D;69198;44.694;37.790;2023-04-16T02:25:00;9.40;78.30
75190;HTU21D;69198;44.694;37.790;2023-04-16T02:26:02;9.34;78.57
75190;HTU21D;69198;44.694;37.790;2023-04-16T02:27:03;9.32;78.37
75190;HTU21D;69198;44.694;37.790;2023-04-16T02:28:04;9.29;78.35
75190;HTU21D;69198;44.694;37.790;2023-04-16T02:29:10;9.27;78.28
75190;HTU21D;69198;44.694;37.790;2023-04-16T02:30:16;9.27;78.42
75190;HTU21D;69198;44.694;37.790;2023-04-16T02:31:18;9.27;78.14
75190;HTU21D;69198;44.694;37.790;2023-04-16T02:32:19;9.29;78.18
75190;HTU21D;69198;44.694;37.790;2023-04-16T02:33:21;9.27;78.31
75190;HTU21D;69198;44.694;37.790;2023-04-16T02:34:35;9.32;78.18
75190;HTU21D;69198;44.694;37.790;2023-04-16T02:35:37;9.33;78.03
75190;HTU21D;69198;44.694;37.790;2023-04-16T02:36:39;9.32;78.00
75190;HTU21D;69198;44.694;37.790;2023-04-16T02:37:40;9.33;78.14
75190;HTU21D;69198;44.694;37.790;2023-04-16T02:38:41;9.32;78.11
75190;HTU21D;69198;44.694;37.790;2023-04-16T02:39:43;9.31;78.25
75190;HTU21D;69198;44.694;37.790;2023-04-16T02:40:44;9.30;78.37
75190;HTU21D;69198;44.694;37.790;2023-04-16T02:41:45;9.30;78.29
75190;HTU21D;69198;44.694;37.790;2023-04-16T02:42:47;9.29;78.11
75190;HTU21D;69198;44.694;37.790;2023-04-16T02:43:48;9.27;78.11
75190;HTU21D;69198;44.694;37.790;2023-04-16T02:44:50;9.30;78.05
75190;HTU21D;69198;44.694;37.790;2023-04-16T02:45:50;9.36;77.85
75190;HTU21D;69198;44.694;37.790;2023-04-16T02:46:52;9.41;77.66
75190;HTU21D;69198;44.694;37.790;2023-04-16T02:47:53;9.40;77.36
75190;HTU21D;69198;44.694;37.790;2023-04-16T02:48:54;9.37;77.68
75190;HTU21D;69198;44.694;37.790;2023-04-16T02:49:55;9.36;77.72
75190;HTU21D;69198;44.694;37.790;2023-04-16T02:50:56;9.36;77.91
75190;HTU21D;69198;44.694;37.790;2023-04-16T02:51:57;9.35;77.92
75190;HTU21D;69198;44.694;37.790;2023-04-16T02:52:58;9.40;77.53
75190;HTU21D;69198;44.694;37.790;2023-04-16T02:53:58;9.40;77.31
75190;HTU21D;69198;44.694;37.790;2023-04-16T02:55:00;9.44;77.50
75190;HTU21D;69198;44.694;37.790;2023-04-16T02:56:01;9.45;77.58
75190;HTU21D;69198;44.694;37.790;2023-04-16T02:57:02;9.53;77.33
75190;HTU21D;69198;44.694;37.790;2023-04-16T02:58:03;9.59;77.05
75190;HTU21D;69198;44.694;37.790;2023-04-16T02:59:04;9.57;77.06
75190;HTU21D;69198;44.694;37.790;2023-04-16T03:00:06;9.55;77.40
75190;HTU21D;69198;44.694;37.790;2023-04-16T03:01:08;9.53;77.60
75190;HTU21D;69198;44.694;37.790;2023-04-16T03:02:09;9.54;77.84
75190;HTU21D;69198;44.694;37.790;2023-04-16T03:03:10;9.61;77.76
75190;HTU21D;69198;44.694;37.790;2023-04-16T03:04:11;9.66;77.49
75190;HTU21D;69198;44.694;37.790;2023-04-16T03:05:12;9.72;76.95
75190;HTU21D;69198;44.694;37.790;2023-04-16T03:06:13;9.74;76.90
75190;HTU21D;69198;44.694;37.790;2023-04-16T03:07:14;9.77;76.57
75190;HTU21D;69198;44.694;37.790;2023-04-16T03:08:17;9.79;75.95
75190;HTU21D;69198;44.694;37.790;2023-04-16T03:09:18;9.77;75.86
75190;HTU21D;69198;44.694;37.790;2023-04-16T03:10:19;9.81;76.18
75190;HTU21D;69198;44.694;37.790;2023-04-16T03:11:20;9.88;75.92
75190;HTU21D;69198;44.694;37.790;2023-04-16T03:12:21;9.91;75.78
75190;HTU21D;69198;44.694;37.790;2023-04-16T03:13:22;9.92;75.85
75190;HTU21D;69198;44.694;37.790;2023-04-16T03:14:23;9.96;75.68
75190;HTU21D;69198;44.694;37.790;2023-04-16T03:15:24;10.07;75.09
75190;HTU21D;69198;44.694;37.790;2023-04-16T03:16:25;10.16;74.64
75190;HTU21D;69198;44.694;37.790;2023-04-16T03:17:26;10.27;73.92
75190;HTU21D;69198;44.694;37.790;2023-04-16T03:18:27;10.31;73.96
75190;HTU21D;69198;44.694;37.790;2023-04-16T03:19:29;10.41;73.70
75190;HTU21D;69198;44.694;37.790;2023-04-16T03:20:29;10.53;73.52
75190;HTU21D;69198;44.694;37.790;2023-04-16T03:21:31;10.59;72.93
75190;HTU21D;69198;44.694;37.790;2023-04-16T03:22:32;10.59;72.81
75190;HTU21D;69198;44.694;37.790;2023-04-16T03:23:34;10.58;72.70
75190;HTU21D;69198;44.694;37.790;2023-04-16T03:24:35;10.56;72.36
75190;HTU21D;69198;44.694;37.790;2023-04-16T03:25:37;10.50;72.73
75190;HTU21D;69198;44.694;37.790;2023-04-16T03:26:42;10.48;72.70
75190;HTU21D;69198;44.694;37.790;2023-04-16T03:27:44;10.45;72.74
75190;HTU21D;69198;44.694;37.790;2023-04-16T03:28:46;10.44;72.60
75190;HTU21D;69198;44.694;37.790;2023-04-16T03:29:47;10.46;72.62
75190;HTU21D;69198;44.694;37.790;2023-04-16T03:30:52;10.45;72.38
75190;HTU21D;69198;44.694;37.790;2023-04-16T03:31:53;10.44;72.48
75190;HTU21D;69198;44.694;37.790;2023-04-16T03:32:55;10.43;72.46
75190;HTU21D;69198;44.694;37.790;2023-04-16T03:33:56;10.43;72.35
75190;HTU21D;69198;44.694;37.790;2023-04-16T03:34:57;10.46;72.13
75190;HTU21D;69198;44.694;37.790;2023-04-16T03:35:59;10.45;72.05
75190;HTU21D;69198;44.694;37.790;2023-04-16T03:37:03;10.46;72.02
75190;HTU21D;69198;44.694;37.790;2023-04-16T03:38:06;10.44;72.13
75190;HTU21D;69198;44.694;37.790;2023-04-16T03:39:07;10.40;72.42
75190;HTU21D;69198;44.694;37.790;2023-04-16T03:40:08;10.39;72.50
75190;HTU21D;69198;44.694;37.790;2023-04-16T03:41:09;10.39;72.67
75190;HTU21D;69198;44.694;37.790;2023-04-16T03:42:11;10.39;72.65
75190;HTU21D;69198;44.694;37.790;2023-04-16T03:43:12;10.36;73.11
75190;HTU21D;69198;44.694;37.790;2023-04-16T03:44:13;10.36;72.91
75190;HTU21D;69198;44.694;37.790;2023-04-16T03:45:15;10.34;73.02
75190;HTU21D;69198;44.694;37.790;2023-04-16T03:46:17;10.31;73.11
75190;HTU21D;69198;44.694;37.790;2023-04-16T03:47:19;10.30;73.15
75190;HTU21D;69198;44.694;37.790;2023-04-16T03:48:21;10.26;73.37
75190;HTU21D;69198;44.694;37.790;2023-04-16T03:49:22;10.24;73.34
75190;HTU21D;69198;44.694;37.790;2023-04-16T03:50:23;10.23;73.52
75190;HTU21D;69198;44.694;37.790;2023-04-16T03:51:25;10.23;73.64
75190;HTU21D;69198;44.694;37.790;2023-04-16T03:52:26;10.25;73.85
75190;HTU21D;69198;44.694;37.790;2023-04-16T03:53:28;10.29;73.41
75190;HTU21D;69198;44.694;37.790;2023-04-16T03:54:29;10.33;73.42
75190;HTU21D;69198;44.694;37.790;2023-04-16T03:55:41;10.31;73.61
75190;HTU21D;69198;44.694;37.790;2023-04-16T03:56:43;10.36;73.50
75190;HTU21D;69198;44.694;37.790;2023-04-16T03:57:44;10.36;73.26
75190;HTU21D;69198;44.694;37.790;2023-04-16T03:58:47;10.33;73.40
75190;HTU21D;69198;44.694;37.790;2023-04-16T03:59:48;10.29;73.44
75190;HTU21D;69198;44.694;37.790;2023-04-16T04:00:54;10.31;73.53
75190;HTU21D;69198;44.694;37.790;2023-04-16T04:01:55;10.39;73.57
75190;HTU21D;69198;44.694;37.790;2023-04-16T04:02:56;10.49;73.36
75190;HTU21D;69198;44.694;37.790;2023-04-16T04:03:57;10.58;72.86
75190;HTU21D;69198;44.694;37.790;2023-04-16T04:04:59;10.66;72.61
75190;HTU21D;69198;44.694;37.790;2023-04-16T04:06:00;10.69;72.63
75190;HTU21D;69198;44.694;37.790;2023-04-16T04:07:03;10.73;72.35
75190;HTU21D;69198;44.694;37.790;2023-04-16T04:08:05;10.79;72.29
75190;HTU21D;69198;44.694;37.790;2023-04-16T04:09:06;10.87;72.11
75190;HTU21D;69198;44.694;37.790;2023-04-16T04:10:08;10.98;72.01
75190;HTU21D;69198;44.694;37.790;2023-04-16T04:11:13;11.15;71.16
75190;HTU21D;69198;44.694;37.790;2023-04-16T04:12:15;11.27;70.99
75190;HTU21D;69198;44.694;37.790;2023-04-16T04:13:18;11.40;70.31
75190;HTU21D;69198;44.694;37.790;2023-04-16T04:14:19;11.54;70.13
75190;HTU21D;69198;44.694;37.790;2023-04-16T04:15:20;11.64;69.60
75190;HTU21D;69198;44.694;37.790;2023-04-16T04:16:21;11.76;69.37
75190;HTU21D;69198;44.694;37.790;2023-04-16T04:17:22;11.94;69.00
75190;HTU21D;69198;44.694;37.790;2023-04-16T04:18:24;12.18;68.37
75190;HTU21D;69198;44.694;37.790;2023-04-16T04:19:25;12.41;67.19
75190;HTU21D;69198;44.694;37.790;2023-04-16T04:20:26;12.59;66.86
75190;HTU21D;69198;44.694;37.790;2023-04-16T04:21:28;12.70;66.00
75190;HTU21D;69198;44.694;37.790;2023-04-16T04:22:29;12.72;65.43
75190;HTU21D;69198;44.694;37.790;2023-04-16T04:23:30;12.75;65.15
75190;HTU21D;69198;44.694;37.790;2023-04-16T04:24:31;12.84;64.90
75190;HTU21D;69198;44.694;37.790;2023-04-16T04:25:32;12.88;64.62
75190;HTU21D;69198;44.694;37.790;2023-04-16T04:26:33;12.95;64.31
75190;HTU21D;69198;44.694;37.790;2023-04-16T04:27:35;13.07;64.16
75190;HTU21D;69198;44.694;37.790;2023-04-16T04:28:36;13.15;63.78
75190;HTU21D;69198;44.694;37.790;2023-04-16T04:29:38;13.16;63.56
75190;HTU21D;69198;44.694;37.790;2023-04-16T04:30:40;13.15;63.12
75190;HTU21D;69198;44.694;37.790;2023-04-16T04:31:41;13.09;63.29
75190;HTU21D;69198;44.694;37.790;2023-04-16T04:32:42;13.11;63.62
75190;HTU21D;69198;44.694;37.790;2023-04-16T04:33:43;13.17;63.24
75190;HTU21D;69198;44.694;37.790;2023-04-16T04:34:44;13.18;63.10
75190;HTU21D;69198;44.694;37.790;2023-04-16T04:35:45;13.17;63.07
75190;HTU21D;69198;44.694;37.790;2023-04-16T04:36:48;13.19;63.20
75190;HTU21D;69198;44.694;37.790;2023-04-16T04:37:49;13.25;63.11
75190;HTU21D;69198;44.694;37.790;2023-04-16T04:38:53;13.36;62.97
75190;HTU21D;69198;44.694;37.790;2023-04-16T04:39:55;13.49;62.35
75190;HTU21D;69198;44.694;37.790;2023-04-16T04:40:56;13.52;62.02
75190;HTU21D;69198;44.694;37.790;2023-04-16T04:41:58;13.55;61.91
75190;HTU21D;69198;44.694;37.790;2023-04-16T04:42:59;13.59;62.08
75190;HTU21D;69198;44.694;37.790;2023-04-16T04:44:00;13.73;62.15
75190;HTU21D;69198;44.694;37.790;2023-04-16T04:45:01;13.85;61.23
75190;HTU21D;69198;44.694;37.790;2023-04-16T04:46:05;13.92;61.11
75190;HTU21D;69198;44.694;37.790;2023-04-16T04:47:06;14.00;61.31
75190;HTU21D;69198;44.694;37.790;2023-04-16T04:48:07;14.12;61.20
75190;HTU21D;69198;44.694;37.790;2023-04-16T04:49:08;14.25;60.58
75190;HTU21D;69198;44.694;37.790;2023-04-16T04:50:10;14.30;59.82
75190;HTU21D;69198;44.694;37.790;2023-04-16T04:51:12;14.30;59.51
75190;HTU21D;69198;44.694;37.790;2023-04-16T04:52:15;14.28;59.53
75190;HTU21D;69198;44.694;37.790;2023-04-16T04:53:16;14.29;59.57
75190;HTU21D;69198;44.694;37.790;2023-04-16T04:54:17;14.30;59.48
75190;HTU21D;69198;44.694;37.790;2023-04-16T04:55:18;14.38;59.57
75190;HTU21D;69198;44.694;37.790;2023-04-16T04:56:19;14.49;58.70
75190;HTU21D;69198;44.694;37.790;2023-04-16T04:57:21;14.49;58.60
75190;HTU21D;69198;44.694;37.790;2023-04-16T04:58:25;14.52;58.53
75190;HTU21D;69198;44.694;37.790;2023-04-16T04:59:26;14.55;58.29
75190;HTU21D;69198;44.694;37.790;2023-04-16T05:00:27;14.57;58.38
75190;HTU21D;69198;44.694;37.790;2023-04-16T05:01:30;14.58;58.13
75190;HTU21D;69198;44.694;37.790;2023-04-16T05:02:31;14.58;58.27
75190;HTU21D;69198;44.694;37.790;2023-04-16T05:03:32;14.59;58.32
75190;HTU21D;69198;44.694;37.790;2023-04-16T05:04:33;14.65;58.13
75190;HTU21D;69198;44.694;37.790;2023-04-16T05:05:34;14.65;58.17
75190;HTU21D;69198;44.694;37.790;2023-04-16T05:06:35;14.67;58.03
75190;HTU21D;69198;44.694;37.790;2023-04-16T05:07:36;14.69;58.06
75190;HTU21D;69198;44.694;37.790;2023-04-16T05:08:37;14.68;57.99
75190;HTU21D;69198;44.694;37.790;2023-04-16T05:09:38;14.74;58.19
75190;HTU21D;69198;44.694;37.790;2023-04-16T05:10:39;14.78;58.04
75190;HTU21D;69198;44.694;37.790;2023-04-16T05:11:41;14.78;57.87
75190;HTU21D;69198;44.694;37.790;2023-04-16T05:12:42;14.74;57.99
75190;HTU21D;69198;44.694;37.790;2023-04-16T05:13:43;14.70;57.77
75190;HTU21D;69198;44.694;37.790;2023-04-16T05:14:44;14.66;58.08
75190;HTU21D;69198;44.694;37.790;2023-04-16T05:15:45;14.67;58.15
75190;HTU21D;69198;44.694;37.790;2023-04-16T05:16:46;14.69;57.71
75190;HTU21D;69198;44.694;37.790;2023-04-16T05:17:47;14.69;57.57
75190;HTU21D;69198;44.694;37.790;2023-04-16T05:18:48;14.65;57.44
75190;HTU21D;69198;44.694;37.790;2023-04-16T05:19:49;14.59;57.62
75190;HTU21D;69198;44.694;37.790;2023-04-16T05:20:50;14.57;57.59
75190;HTU21D;69198;44.694;37.790;2023-04-16T05:21:51;14.54;57.52
75190;HTU21D;69198;44.694;37.790;2023-04-16T05:22:53;14.51;57.50
75190;HTU21D;69198;44.694;37.790;2023-04-16T05:23:55;14.49;57.71
75190;HTU21D;69198;44.694;37.790;2023-04-16T05:24:56;14.43;57.55
75190;HTU21D;69198;44.694;37.790;2023-04-16T05:25:57;14.37;57.61
75190;HTU21D;69198;44.694;37.790;2023-04-16T05:26:58;14.35;57.87
75190;HTU21D;69198;44.694;37.790;2023-04-16T05:27:59;14.41;58.25
75190;HTU21D;69198;44.694;37.790;2023-04-16T05:29:00;14.56;57.96
75190;HTU21D;69198;44.694;37.790;2023-04-16T05:30:01;14.67;57.30
75190;HTU21D;69198;44.694;37.790;2023-04-16T05:31:02;14.70;57.56
75190;HTU21D;69198;44.694;37.790;2023-04-16T05:32:03;14.69;57.67
75190;HTU21D;69198;44.694;37.790;2023-04-16T05:33:04;14.70;57.68
75190;HTU21D;69198;44.694;37.790;2023-04-16T05:34:05;14.68;57.32
75190;HTU21D;69198;44.694;37.790;2023-04-16T05:35:06;14.68;57.33
75190;HTU21D;69198;44.694;37.790;2023-04-16T05:36:07;14.70;57.35
75190;HTU21D;69198;44.694;37.790;2023-04-16T05:37:08;14.70;57.60
75190;HTU21D;69198;44.694;37.790;2023-04-16T05:38:09;14.66;57.46
75190;HTU21D;69198;44.694;37.790;2023-04-16T05:39:11;14.57;57.67
75190;HTU21D;69198;44.694;37.790;2023-04-16T05:40:12;14.49;58.19
75190;HTU21D;69198;44.694;37.790;2023-04-16T05:41:13;14.48;58.12
75190;HTU21D;69198;44.694;37.790;2023-04-16T05:42:15;14.50;58.15
75190;HTU21D;69198;44.694;37.790;2023-04-16T05:43:16;14.53;58.62
75190;HTU21D;69198;44.694;37.790;2023-04-16T05:44:17;14.62;58.67
75190;HTU21D;69198;44.694;37.790;2023-04-16T05:45:18;14.70;58.63
75190;HTU21D;69198;44.694;37.790;2023-04-16T05:46:19;14.79;58.39
75190;HTU21D;69198;44.694;37.790;2023-04-16T05:47:20;14.89;58.54
75190;HTU21D;69198;44.694;37.790;2023-04-16T05:48:21;14.96;57.52
75190;HTU21D;69198;44.694;37.790;2023-04-16T05:49:22;14.96;58.28
75190;HTU21D;69198;44.694;37.790;2023-04-16T05:50:23;15.00;58.03
75190;HTU21D;69198;44.694;37.790;2023-04-16T05:51:24;14.99;57.58
75190;HTU21D;69198;44.694;37.790;2023-04-16T05:52:27;14.97;57.92
75190;HTU21D;69198;44.694;37.790;2023-04-16T05:53:28;14.95;57.96
75190;HTU21D;69198;44.694;37.790;2023-04-16T05:54:29;14.93;57.51
75190;HTU21D;69198;44.694;37.790;2023-04-16T05:55:30;14.88;57.64
75190;HTU21D;69198;44.694;37.790;2023-04-16T05:56:31;14.94;57.87
75190;HTU21D;69198;44.694;37.790;2023-04-16T05:57:32;15.04;57.61
75190;HTU21D;69198;44.694;37.790;2023-04-16T05:58:33;15.13;57.96
75190;HTU21D;69198;44.694;37.790;2023-04-16T05:59:34;15.19;57.75
75190;HTU21D;69198;44.694;37.790;2023-04-16T06:00:35;15.23;57.80
75190;HTU21D;69198;44.694;37.790;2023-04-16T06:01:36;15.30;57.51
75190;HTU21D;69198;44.694;37.790;2023-04-16T06:02:37;15.34;57.03
75190;HTU21D;69198;44.694;37.790;2023-04-16T06:03:38;15.30;56.98
75190;HTU21D;69198;44.694;37.790;2023-04-16T06:04:39;15.29;56.80
75190;HTU21D;69198;44.694;37.790;2023-04-16T06:05:41;15.30;57.06
75190;HTU21D;69198;44.694;37.790;2023-04-16T06:06:42;15.37;57.29
75190;HTU21D;69198;44.694;37.790;2023-04-16T06:07:43;15.47;57.10
75190;HTU21D;69198;44.694;37.790;2023-04-16T06:08:44;15.55;57.03
75190;HTU21D;69198;44.694;37.790;2023-04-16T06:09:45;15.52;56.45
75190;HTU21D;69198;44.694;37.790;2023-04-16T06:10:46;15.49;56.49
75190;HTU21D;69198;44.694;37.790;2023-04-16T06:11:47;15.44;56.35
75190;HTU21D;69198;44.694;37.790;2023-04-16T06:12:48;15.40;56.90
75190;HTU21D;69198;44.694;37.790;2023-04-16T06:13:49;15.46;56.74
75190;HTU21D;69198;44.694;37.790;2023-04-16T06:14:51;15.47;56.61
75190;HTU21D;69198;44.694;37.790;2023-04-16T06:15:51;15.47;57.03
75190;HTU21D;69198;44.694;37.790;2023-04-16T06:16:52;15.44;57.07
75190;HTU21D;69198;44.694;37.790;2023-04-16T06:17:54;15.39;57.29
75190;HTU21D;69198;44.694;37.790;2023-04-16T06:18:55;15.42;57.53
75190;HTU21D;69198;44.694;37.790;2023-04-16T06:19:56;15.40;57.03